x

North Channel East (45154) Weather Station

3:00pm - Sat 24th Sep 2016 All times are CDT. -5 hours from GMT.

  • Peak Period 2s
  • Wind
    7mph, 9mph gusts
  • Sea Temp 67°f
  • Air Temp 61°f
  • Sea Pressure 1025.3mb
  • North Channel East
  • North Channel East

More Historic Weather Station data

Upgrade to MSW Pro to gain access to the past 30 days of data for over 8000 Wavebouys and Weather Stations around the globe.

Join Pro

Comparision Forecast

View Surf forecast
   
Sat 09/24 3:00pm  -  2s 7 9 mph 1025.3mb 67f 61f
2:00pm  -  2s 4 7 mph 1025.7mb 67f 60f
1:00pm  -  2s 4
mph
1026.1mb 67f 59f
12:00pm 0.3ft 2s 2 4 mph 1026.8mb 67f 59f
11:00am 0.3ft 2s  -  2 mph 1027.4mb 66f 59f
10:00am 0.3ft 2s 4 7 mph 1027.5mb 66f 57f
9:00am 0.3ft 2s 9 11 mph 1027.8mb 66f 56f
8:00am 0.7ft 2s 7 9 mph 1027.7mb 66f 56f
7:00am 0.7ft 2s 9 11 mph 1027.4mb 66f 56f
6:00am 0.7ft 2s 9 11 mph 1026.6mb 66f 56f
5:00am 0.7ft 2s 11 13 mph 1026.2mb 66f 56f
4:00am 0.7ft 2s 9 11 mph 1025.8mb 66f 56f
3:00am 0.7ft 2s 9 11 mph 1025.6mb 66f 56f
2:00am 0.7ft 2s 9 11 mph 1025.6mb 66f 57f
1:00am 0.7ft 2s 9 11 mph 1025.5mb 66f 57f
12:00am 1ft 3s 9 11 mph 1025.5mb 66f 58f
Fri 09/23 11:00pm 1.3ft 3s 11 13 mph 1025.2mb 66f 58f
10:00pm 1.3ft 3s 13 16 mph 1024.9mb 66f 59f
8:00pm 1ft 2s 18 20 mph 1024.7mb 66f 60f
7:00pm 0.7ft 2s 11 16 mph 1024.5mb 66f 61f
6:00pm 0.7ft 2s 9 11 mph 1024.1mb 66f 61f
5:00pm 0.7ft 2s 9 13 mph 1023.5mb 67f 62f
4:00pm 0.7ft 2s 9 13 mph 1023.6mb 67f 61f
3:00pm 0.7ft 2s 9 11 mph 1023.5mb 67f 60f
2:00pm 0.7ft 3s 9 11 mph 1024mb 67f 59f
1:00pm 1ft 3s 9 11 mph 1024.5mb 67f 58f
12:00pm 1ft 3s 9 13 mph 1024.8mb 67f 57f
11:00am 1.3ft 3s 11 16 mph 1025mb 66f 57f
10:00am 1.6ft 3s 13 18 mph 1024.8mb 66f 56f
9:00am 1.6ft 3s 16 20 mph 1024.5mb 67f 55f
8:00am 1.6ft 3s 18 20 mph 1024.3mb 67f 54f
7:00am 1.3ft 3s 20 22 mph 1023.9mb 67f 54f
6:00am 1.6ft 3s 16 20 mph 1023.1mb 66f 56f
5:00am 2ft 3s 16 20 mph 1022.5mb 67f 56f
4:00am 1.6ft 3s 20 25 mph 1021.6mb 67f 56f
3:00am 1.6ft 3s 18 22 mph 1020.4mb 67f 58f
2:00am 1.6ft 3s 18 22 mph 1020.1mb 67f 58f
1:00am 2ft 3s 18 22 mph 1020.1mb 67f 58f
12:00am 2ft 3s 20 22 mph 1019.8mb 67f 58f
Thu 09/22 11:00pm 2ft 3s 20 27 mph 1019.5mb 67f 59f
10:00pm 2ft 3s 18 22 mph 1018.9mb 67f 59f
9:00pm 1.6ft 3s 20 27 mph 1019.3mb 67f 59f
8:00pm 1ft 2s 18 20 mph 1019.1mb 67f 61f
7:00pm 1ft 3s 13 18 mph 1018.8mb 67f 61f
6:00pm 1ft 2s 11 13 mph 1018.1mb 67f 61f
5:00pm 1ft 2s 13 16 mph 1017.8mb 67f 61f
4:00pm 0.7ft 2s 11 13 mph 1017.5mb 67f 61f
3:00pm 0.7ft 2s 11 13 mph 1017.7mb 67f 61f
2:00pm 0.7ft 2s 9 11 mph 1018.2mb 67f 61f
1:00pm 1ft 3s 9 11 mph 1018.1mb 67f 61f
12:00pm 1ft 3s 11 13 mph 1018.8mb 67f 60f
11:00am 1.3ft 2s 13 16 mph 1019.1mb 67f 59f
10:00am 1ft 3s 16 18 mph 1019.5mb 67f 58f
9:00am 1.3ft 3s 9 11 mph 1020.2mb 67f 60f
8:00am 1.6ft 3s 11 13 mph 1019.2mb 67f 61f
7:00am 1.6ft 3s 18 20 mph 1018.5mb 67f 62f
6:00am 1ft 3s 13 18 mph 1020mb 67f 62f
5:00am 1ft 3s 13 16 mph 1019.9mb 67f 63f
4:00am 1ft 2s 16 18 mph 1019.2mb 67f 63f
3:00am 0.7ft 2s 11 13 mph 1020mb 67f 63f
2:00am 0.3ft 2s 9 11 mph 1019.9mb 67f 65f
1:00am 0.3ft 2s 7 11 mph 1020.2mb 67f 65f
12:00am  -  2s 4 7 mph 1019.9mb 67f 66f
Wed 09/21 11:00pm  -  2s 7
mph
1020.2mb 67f 66f
10:00pm  -  3s 4 7 mph 1020.6mb 67f 67f
9:00pm 0.3ft 2s 4 7 mph 1020mb 67f 66f
8:00pm 0.3ft 2s 4 7 mph 1019.7mb 68f 67f
7:00pm  -  2s 7 9 mph 1020.1mb 68f 67f
6:00pm  -  2s 4 7 mph 1020.2mb 68f 68f
5:00pm  -  2s 2 4 mph 1020mb 68f 69f
4:00pm  -  2s 4
mph
1019.9mb 68f 68f
3:00pm  -  2s 4
mph
1019.9mb 68f 67f
2:00pm 0.3ft 2s 4 7 mph 1020.8mb 68f 67f
1:00pm 0.3ft 2s 4
mph
1021.8mb 68f 67f
12:00pm 0.3ft 2s 4 7 mph 1022.2mb 67f 67f
11:00am 0.3ft 2s 7
mph
1021.9mb 67f 66f
10:00am 0.7ft 3s 7
mph
1021.9mb 67f 66f
9:00am 0.7ft 2s 7 9 mph 1021.5mb 67f 66f
8:00am 1ft 3s 9
mph
1021.4mb 67f 65f
7:00am 1ft 3s 9 11 mph 1021.1mb 67f 66f
6:00am 1ft 3s 11 13 mph 1020.7mb 67f 66f
5:00am 1.3ft 4s 11
mph
1020.4mb 67f 66f
4:00am 1.3ft 4s 11 13 mph 1020.1mb 67f 66f
3:00am 1.6ft 3s 13 18 mph 1019.8mb 67f 67f
2:00am 1.3ft 3s 16 18 mph 1019.6mb 67f 67f
1:00am 1.3ft 3s 13 18 mph 1019.8mb 67f 67f
12:00am 1.3ft 3s 13 16 mph 1019.5mb 67f 68f
Tue 09/20 11:00pm 1.3ft 2s 13 16 mph 1019.7mb 67f 67f
10:00pm 1.3ft 3s 13 18 mph 1019.5mb 67f 67f